Time;durP1;ratioP1;P1;durP2;ratioP2;P2;SDS_P1;SDS_P2;PMS_P1;PMS_P2;Temp;Humidity;BMP_temperature;BMP_pressure;BME280_temperature;BME280_humidity;BME280_pressure;Samples;Min_cycle;Max_cycle;Signal;HPM_P1;HPM_P2
2022/08/11 00:01:18;;;;;;;3.47;2.20;;;;;;;25.62;88.91;102125.81;5097648;28;20033;-53
2022/08/11 00:03:47;;;;;;;8.33;2.10;;;;;;;25.41;89.87;102129.50;5090898;28;20028;-54
2022/08/11 00:06:21;;;;;;;8.23;2.53;;;;;;;25.33;90.59;102125.34;5088542;28;20025;-53
2022/08/11 00:08:49;;;;;;;4.97;2.03;;;;;;;25.37;90.34;102128.34;5088406;28;20036;-55
2022/08/11 00:11:16;;;;;;;7.97;2.83;;;;;;;25.33;90.51;102123.41;5090007;28;20028;-54
2022/08/11 00:13:44;;;;;;;34.93;16.67;;;;;;;25.28;91.49;102126.13;5093042;28;20028;-53
2022/08/11 00:16:19;;;;;;;8.77;5.00;;;;;;;25.19;92.26;102127.72;5098723;28;20061;-54
2022/08/11 00:18:49;;;;;;;6.57;2.33;;;;;;;25.18;92.16;102131.53;5099092;28;20028;-55
2022/08/11 00:21:16;;;;;;;11.17;2.77;;;;;;;25.05;93.44;102130.91;5092238;28;20036;-53
2022/08/11 00:23:45;;;;;;;7.33;2.20;;;;;;;25.12;93.07;102127.94;5094005;28;20044;-53
2022/08/11 00:26:14;;;;;;;6.63;2.60;;;;;;;25.01;94.04;102132.50;5096904;28;20032;-54
2022/08/11 00:28:40;;;;;;;3.97;2.63;;;;;;;25.00;94.60;102124.56;5097427;28;20041;-55
2022/08/11 00:31:20;;;;;;;8.83;2.93;;;;;;;24.92;94.95;102123.16;5099855;28;20032;-55
2022/08/11 00:33:48;;;;;;;6.47;2.43;;;;;;;24.86;95.71;102119.53;5092365;28;20029;-55
2022/08/11 00:36:15;;;;;;;7.13;2.00;;;;;;;24.82;96.40;102129.38;5094919;28;20025;-50
2022/08/11 00:38:44;;;;;;;63.57;31.33;;;;;;;24.83;96.86;102124.69;5089266;28;20084;-54
2022/08/11 00:41:26;;;;;;;6.97;3.40;;;;;;;24.75;97.72;102129.56;5093996;28;20043;-55
2022/08/11 00:44:11;;;;;;;6.70;2.47;;;;;;;24.70;98.16;102126.78;5082886;28;20152;-53
2022/08/11 00:47:04;;;;;;;11.70;3.43;;;;;;;24.60;100.00;102123.94;5083887;28;20100;-55
2022/08/11 00:49:49;;;;;;;10.17;3.37;;;;;;;24.58;100.00;102126.09;5082140;28;20037;-53
2022/08/11 00:52:57;;;;;;;8.13;3.60;;;;;;;24.54;100.00;102135.91;5081934;28;20036;-55
2022/08/11 00:55:43;;;;;;;7.73;3.10;;;;;;;24.53;100.00;102135.06;5084259;28;20032;-54
2022/08/11 00:58:38;;;;;;;7.32;2.80;;;;;;;24.58;100.00;102134.31;5078916;28;20036;-53
2022/08/11 01:01:20;;;;;;;8.37;2.57;;;;;;;24.43;100.00;102133.06;5065246;28;20040;-56
2022/08/11 01:04:34;;;;;;;8.03;2.93;;;;;;;24.38;100.00;102134.94;5078792;28;20040;-50
2022/08/11 01:07:40;;;;;;;7.20;2.47;;;;;;;24.43;100.00;102127.59;5083406;28;20052;-55
2022/08/11 01:10:44;;;;;;;6.57;3.37;;;;;;;24.41;100.00;102127.03;5081109;28;20054;-56
2022/08/11 01:13:17;;;;;;;9.77;2.70;;;;;;;24.38;100.00;102124.81;5041637;28;20066;-55
2022/08/11 01:16:28;;;;;;;6.17;2.87;;;;;;;24.43;100.00;102126.78;5082780;28;20092;-57
2022/08/11 01:19:13;;;;;;;8.93;3.33;;;;;;;24.32;100.00;102132.13;5080192;28;20020;-56
2022/08/11 01:22:13;;;;;;;6.00;2.40;;;;;;;24.31;100.00;102124.22;5082596;28;20052;-57
2022/08/11 01:25:04;;;;;;;4.70;2.57;;;;;;;24.22;100.00;102121.09;5078692;28;20029;-56
2022/08/11 01:27:48;;;;;;;9.27;2.83;;;;;;;24.13;100.00;102122.66;5074497;28;20036;-57
2022/08/11 01:30:44;;;;;;;10.07;2.40;;;;;;;24.16;100.00;102122.94;5084472;28;20067;-54
2022/08/11 01:33:58;;;;;;;3.50;2.07;;;;;;;24.06;100.00;102123.66;5081481;28;20032;-53
2022/08/11 01:36:46;;;;;;;5.97;2.73;;;;;;;24.11;100.00;102122.91;5085003;28;20037;-55
2022/08/11 01:39:56;;;;;;;4.07;2.00;;;;;;;24.03;100.00;102117.91;5084248;28;20036;-56
2022/08/11 01:45:54;;;;;;;6.37;2.20;;;;;;;23.93;100.00;102118.56;5099585;28;20032;-54
2022/08/11 01:48:43;;;;;;;9.70;2.30;;;;;;;24.00;100.00;102121.13;5096732;28;20055;-55
2022/08/11 01:52:00;;;;;;;10.10;2.27;;;;;;;23.96;100.00;102120.78;5093389;28;20037;-54
2022/08/11 01:54:40;;;;;;;5.60;2.27;;;;;;;23.93;100.00;102118.56;5102333;28;20059;-52
2022/08/11 01:57:28;;;;;;;4.47;2.57;;;;;;;23.96;100.00;102118.06;5096808;28;20039;-53
2022/08/11 02:00:07;;;;;;;4.90;2.30;;;;;;;23.88;100.00;102118.53;5095923;28;20051;-54
2022/08/11 02:02:52;;;;;;;5.10;2.40;;;;;;;23.80;100.00;102129.88;5099569;28;20027;-53
2022/08/11 02:05:36;;;;;;;7.43;2.33;;;;;;;23.59;100.00;102124.97;5098701;28;20037;-51
2022/08/11 02:08:18;;;;;;;5.83;2.70;;;;;;;23.60;100.00;102123.91;5101869;28;20088;-55
2022/08/11 02:13:56;;;;;;;3.23;2.13;;;;;;;23.42;100.00;102113.28;5095419;28;20066;-54
2022/08/11 02:16:48;;;;;;;9.23;2.53;;;;;;;23.40;100.00;102118.16;5095845;28;20029;-54
2022/08/11 02:25:47;;;;;;;5.80;2.40;;;;;;;23.22;100.00;102109.13;5094985;28;20028;-56
2022/08/11 02:28:15;;;;;;;7.55;2.28;;;;;;;23.30;100.00;102106.03;5100371;28;20100;-54
2022/08/11 02:33:21;;;;;;;5.97;2.20;;;;;;;23.30;100.00;102106.03;5089861;28;20123;-53
2022/08/11 02:33:47;;;;;;;3.37;2.30;;;;;;;23.20;100.00;102105.84;5096213;28;20041;-51
2022/08/11 02:36:20;;;;;;;7.73;2.53;;;;;;;23.18;100.00;102113.44;5098220;28;20028;-54
2022/08/11 02:38:59;;;;;;;6.10;2.90;;;;;;;23.27;100.00;102109.22;5097620;28;20036;-54
2022/08/11 02:44:47;;;;;;;17.93;2.30;;;;;;;23.18;100.00;102105.25;5097034;28;20051;-54
2022/08/11 02:47:22;;;;;;;5.57;2.00;;;;;;;23.23;100.00;102108.06;5096657;28;20040;-52
2022/08/11 02:50:12;;;;;;;6.00;2.53;;;;;;;23.22;100.00;102106.41;5094339;28;20077;-56
2022/08/11 02:53:02;;;;;;;7.90;2.50;;;;;;;23.14;100.00;102106.84;5083507;28;20088;-56
2022/08/11 02:55:56;;;;;;;4.23;2.40;;;;;;;23.04;100.00;102102.88;5099458;28;20028;-56
2022/08/11 02:58:35;;;;;;;7.13;2.50;;;;;;;22.96;100.00;102110.66;5093784;28;20051;-54
2022/08/11 03:01:20;;;;;;;10.37;2.57;;;;;;;22.92;100.00;102105.69;5095530;28;20111;-55
2022/08/11 03:04:05;;;;;;;4.27;2.20;;;;;;;22.90;100.00;102112.47;5093323;28;20036;-55
2022/08/11 03:07:07;;;;;;;7.53;2.53;;;;;;;22.85;100.00;102105.03;5095595;28;20032;-55
2022/08/11 03:09:36;;;;;;;6.33;2.43;;;;;;;22.84;100.00;102106.09;5094186;28;20036;-56
2022/08/11 03:18:03;;;;;;;4.90;2.30;;;;;;;22.67;100.00;102105.25;5091617;28;20050;-57
2022/08/11 03:20:29;;;;;;;4.10;2.63;;;;;;;22.75;100.00;102105.69;5093549;28;20028;-52
2022/08/11 03:23:05;;;;;;;15.55;3.20;;;;;;;22.82;100.00;102104.69;5094807;28;20105;-52
2022/08/11 03:25:48;;;;;;;5.22;2.55;;;;;;;22.73;100.00;102102.38;5096953;28;20044;-53
2022/08/11 03:28:26;;;;;;;5.27;2.60;;;;;;;22.70;100.00;102091.97;5094752;28;20056;-54
2022/08/11 03:31:04;;;;;;;5.37;2.20;;;;;;;22.66;100.00;102090.81;5093943;28;20043;-55
2022/08/11 03:36:45;;;;;;;6.53;2.80;;;;;;;22.53;100.00;102096.56;5085016;28;20029;-58
2022/08/11 03:39:53;;;;;;;8.20;2.53;;;;;;;22.54;100.00;102103.69;5073657;28;20040;-57
2022/08/11 03:42:33;;;;;;;6.80;2.27;;;;;;;22.42;100.00;102109.16;5093185;28;20049;-52
2022/08/11 03:45:24;;;;;;;11.60;2.93;;;;;;;22.56;100.00;102110.56;5098809;28;20269;-56
2022/08/11 03:47:52;;;;;;;6.20;2.43;;;;;;;22.48;100.00;102109.03;5091442;28;20041;-56
2022/08/11 03:50:20;;;;;;;12.37;2.50;;;;;;;22.41;100.00;102105.63;5076075;28;20095;-54
2022/08/11 03:53:03;;;;;;;5.80;2.50;;;;;;;22.31;100.00;102102.69;5092584;28;20042;-56
2022/08/11 03:55:58;;;;;;;6.83;2.60;;;;;;;22.31;100.00;102108.16;5092925;28;20077;-55
2022/08/11 03:58:45;;;;;;;3.63;2.33;;;;;;;22.30;100.00;102104.63;5092710;28;20029;-53
2022/08/11 04:01:33;;;;;;;7.72;2.67;;;;;;;22.23;100.00;102108.56;5101542;28;20032;-57
2022/08/11 04:04:17;;;;;;;11.07;2.80;;;;;;;22.19;100.00;102111.75;5091786;28;20040;-57
2022/08/11 04:07:11;;;;;;;7.13;2.70;;;;;;;22.13;100.00;102103.72;5087793;28;20076;-56
2022/08/11 04:09:55;;;;;;;7.33;2.60;;;;;;;22.11;100.00;102105.88;5089226;28;20028;-54
2022/08/11 04:12:58;;;;;;;5.70;2.53;;;;;;;22.05;100.00;102102.22;5093270;28;20028;-56
2022/08/11 04:15:59;;;;;;;7.03;2.80;;;;;;;22.09;100.00;102103.38;5078161;28;20056;-57
2022/08/11 04:19:21;;;;;;;9.00;2.87;;;;;;;22.55;100.00;102094.44;5094347;28;20039;-55
2022/08/11 04:22:21;;;;;;;7.03;2.77;;;;;;;22.52;100.00;102092.19;5014899;28;20034;-57
2022/08/11 04:25:09;;;;;;;11.33;3.53;;;;;;;22.56;100.00;102096.91;5011996;28;20041;-54
2022/08/11 04:28:01;;;;;;;4.83;2.63;;;;;;;22.33;100.00;102097.81;5084194;28;20048;-53
2022/08/11 04:30:49;;;;;;;5.47;3.53;;;;;;;22.04;100.00;102095.13;5087841;28;20048;-54
2022/08/11 04:33:40;;;;;;;7.37;3.50;;;;;;;21.86;100.00;102093.41;5092844;28;20038;-55
2022/08/11 04:39:48;;;;;;;10.37;3.90;;;;;;;22.44;100.00;102086.06;5094666;28;20039;-53
2022/08/11 04:45:49;;;;;;;11.27;4.97;;;;;;;22.47;100.00;102091.03;5091636;28;20062;-56
2022/08/11 05:03:36;;;;;;;9.97;5.13;;;;;;;22.39;100.00;102088.69;5092363;28;20028;-57
2022/08/11 05:06:38;;;;;;;11.77;6.60;;;;;;;22.48;100.00;102084.50;5092975;28;20048;-57
2022/08/11 05:09:26;;;;;;;14.03;5.47;;;;;;;22.47;100.00;102095.66;5097985;28;20090;-55
2022/08/11 05:12:06;;;;;;;12.77;6.43;;;;;;;22.52;100.00;102090.31;5100390;28;20032;-56
2022/08/11 05:35:02;;;;;;;7.83;3.60;;;;;;;22.70;100.00;102102.88;5096743;28;20052;-58
2022/08/11 05:37:27;;;;;;;10.50;3.90;;;;;;;22.59;100.00;102106.50;5094327;28;20028;-58
2022/08/11 05:56:57;;;;;;;6.43;3.37;;;;;;;22.88;100.00;102115.44;5087047;28;20033;-56
2022/08/11 05:59:27;;;;;;;8.93;4.23;;;;;;;22.97;100.00;102121.31;5094739;28;20020;-55
2022/08/11 06:01:59;;;;;;;11.20;4.27;;;;;;;23.01;100.00;102118.91;5092605;28;20067;-55
2022/08/11 06:04:27;;;;;;;7.40;3.87;;;;;;;22.97;100.00;102126.75;5094929;28;20052;-56
2022/08/11 06:06:57;;;;;;;10.47;4.13;;;;;;;23.13;100.00;102122.38;5093675;28;20033;-56
2022/08/11 06:09:25;;;;;;;6.63;3.53;;;;;;;23.20;100.00;102128.50;5101738;28;20154;-55
2022/08/11 06:11:51;;;;;;;9.03;3.63;;;;;;;23.31;100.00;102118.59;5095387;28;20028;-58
2022/08/11 06:14:18;;;;;;;;;;;;;;;23.29;100.00;102126.19;5097508;28;20028;-56
2022/08/11 06:16:48;;;;;;;8.00;3.40;;;;;;;23.32;100.00;102122.97;5095027;28;19912;-60
2022/08/11 06:19:14;;;;;;;7.00;3.17;;;;;;;23.43;100.00;102123.94;5092208;28;20099;-57
2022/08/11 06:21:45;;;;;;;5.57;3.17;;;;;;;23.42;100.00;102124.19;5092466;28;20086;-56
2022/08/11 06:24:13;;;;;;;8.13;3.23;;;;;;;23.56;100.00;102124.66;5095824;28;20032;-57
2022/08/11 06:26:49;;;;;;;9.33;3.40;;;;;;;23.55;100.00;102120.28;5096147;28;20033;-55
2022/08/11 06:29:17;;;;;;;8.67;3.77;;;;;;;23.68;100.00;102124.53;5093998;28;20040;-56
2022/08/11 06:31:50;;;;;;;13.17;3.47;;;;;;;23.75;100.00;102134.19;5086662;28;20039;-55
2022/08/11 06:34:48;;;;;;;12.27;4.63;;;;;;;23.91;100.00;102131.66;5096903;28;20115;-57
2022/08/11 06:37:35;;;;;;;8.02;3.78;;;;;;;23.96;100.00;102133.59;5096866;28;20050;-54
2022/08/11 06:40:08;;;;;;;7.60;3.63;;;;;;;24.01;100.00;102134.53;5096850;28;20044;-57
2022/08/11 06:42:50;;;;;;;6.40;3.13;;;;;;;24.09;100.00;102127.81;5092954;28;20093;-55
2022/08/11 06:45:31;;;;;;;11.00;3.63;;;;;;;24.19;100.00;102127.91;5087645;28;20052;-54
2022/08/11 06:47:59;;;;;;;10.43;2.73;;;;;;;24.20;100.00;102124.09;5094070;28;20028;-57
2022/08/11 06:53:16;;;;;;;7.43;3.38;;;;;;;24.33;100.00;102125.56;5087421;28;20033;-56
2022/08/11 07:01:56;;;;;;;6.00;3.17;;;;;;;24.58;100.00;102135.16;5093521;28;20063;-55
2022/08/11 07:04:47;;;;;;;9.17;3.33;;;;;;;24.74;100.00;102130.63;5092075;28;20032;-57
2022/08/11 07:16:33;;;;;;;10.57;3.67;;;;;;;24.39;100.00;102139.31;5084064;28;20037;-55
2022/08/11 07:30:38;;;;;;;56.73;22.63;;;;;;;24.74;100.00;102144.31;5088259;28;19919;-57
2022/08/11 07:33:06;;;;;;;54.13;27.73;;;;;;;24.80;100.00;102147.94;5084650;28;20043;-57
2022/08/11 07:35:42;;;;;;;28.77;14.97;;;;;;;24.82;100.00;102139.47;5090419;28;20051;-53
2022/08/11 07:38:20;;;;;;;56.67;25.90;;;;;;;24.84;100.00;102135.41;5087190;28;20024;-57
2022/08/11 07:40:46;;;;;;;189.53;95.67;;;;;;;24.92;100.00;102134.91;5091893;28;20028;-58
2022/08/11 07:43:13;;;;;;;167.20;85.33;;;;;;;25.04;100.00;102137.44;5092077;28;20040;-57
2022/08/11 07:54:06;;;;;;;151.10;69.23;;;;;;;25.30;100.00;102132.16;5092676;28;20039;-59
2022/08/11 07:56:33;;;;;;;98.43;42.13;;;;;;;25.35;100.00;102134.91;5091524;28;20092;-55
2022/08/11 08:18:12;;;;;;;44.13;23.80;;;;;;;25.84;100.00;102133.03;5090941;28;20029;-54
2022/08/11 08:20:48;;;;;;;25.83;13.30;;;;;;;25.83;100.00;102133.28;5090360;28;20096;-57
2022/08/11 08:23:14;;;;;;;26.23;11.75;;;;;;;25.97;100.00;102128.13;5086254;28;20036;-58
2022/08/11 08:25:42;;;;;;;23.07;11.40;;;;;;;26.00;100.00;102130.31;5088240;28;20046;-57
2022/08/11 08:28:16;;;;;;;24.23;10.77;;;;;;;26.10;100.00;102130.34;5087959;28;20036;-57
2022/08/11 08:30:46;;;;;;;17.57;8.83;;;;;;;26.22;100.00;102132.03;5087283;28;20036;-55
2022/08/11 08:33:28;;;;;;;19.73;9.00;;;;;;;26.27;100.00;102135.63;5082344;28;20054;-56
2022/08/11 08:36:11;;;;;;;16.17;8.73;;;;;;;26.26;100.00;102136.72;5080355;28;20036;-57
2022/08/11 08:38:48;;;;;;;19.87;6.50;;;;;;;26.37;100.00;102140.31;5083816;28;20032;-54
2022/08/11 08:41:21;;;;;;;13.73;5.80;;;;;;;26.42;99.85;102137.56;5090738;28;20033;-56
2022/08/11 08:43:52;;;;;;;15.63;6.03;;;;;;;26.50;99.37;102138.97;5088893;28;20052;-57
2022/08/11 08:46:24;;;;;;;15.40;5.73;;;;;;;26.54;98.88;102128.28;5087875;28;20029;-60
2022/08/11 08:48:50;;;;;;;8.67;3.93;;;;;;;26.48;98.73;102132.94;5091269;28;20032;-59
2022/08/11 08:51:35;;;;;;;7.67;3.17;;;;;;;26.62;96.14;102136.75;5099167;28;20065;-55
2022/08/11 08:54:15;;;;;;;10.53;3.40;;;;;;;26.62;96.53;102135.94;5096923;28;20063;-56
2022/08/11 08:56:43;;;;;;;8.17;4.13;;;;;;;26.65;96.56;102135.41;5093234;28;20036;-57
2022/08/11 08:59:12;;;;;;;8.67;3.37;;;;;;;26.65;96.87;102129.91;5090664;28;20029;-57
2022/08/11 09:01:47;;;;;;;8.37;3.70;;;;;;;26.68;95.89;102132.09;5095688;28;20033;-56
2022/08/11 09:04:14;;;;;;;8.57;3.25;;;;;;;26.81;94.74;102122.50;5091567;28;20036;-58
2022/08/11 09:06:42;;;;;;;;;;;;;;;26.84;93.83;102132.13;5096405;28;20032;-55
2022/08/11 09:09:08;;;;;;;123.70;60.20;;;;;;;26.96;92.78;102135.41;5096905;28;19920;-55
2022/08/11 09:11:58;;;;;;;43.27;24.00;;;;;;;27.02;90.30;102134.34;5081515;28;20111;-58
2022/08/11 09:17:20;;;;;;;48.60;27.07;;;;;;;27.33;88.22;102134.28;5099418;28;20096;-56
2022/08/11 09:19:48;;;;;;;139.20;75.77;;;;;;;27.51;86.95;102128.44;5097247;28;20081;-54
2022/08/11 09:27:49;;;;;;;207.95;97.88;;;;;;;28.33;81.07;102138.25;5095010;28;20037;-57
2022/08/11 09:30:15;;;;;;;183.60;86.03;;;;;;;28.70;77.52;102125.88;5099718;28;20032;-57
2022/08/11 09:32:41;;;;;;;126.70;56.38;;;;;;;29.14;73.75;102132.38;5094860;28;20116;-58
2022/08/11 09:35:08;;;;;;;97.88;45.38;;;;;;;29.52;71.32;102128.16;5091924;28;20041;-58
2022/08/11 09:40:43;;;;;;;32.40;16.20;;;;;;;30.58;64.71;102117.03;5038052;28;20101;-57
2022/08/11 09:45:56;;;;;;;20.77;9.77;;;;;;;31.62;58.80;102118.72;5061912;28;20045;-58
2022/08/11 09:48:25;;;;;;;15.88;7.50;;;;;;;32.04;56.49;102132.47;5082549;28;20033;-60
2022/08/11 09:50:56;;;;;;;10.68;4.95;;;;;;;32.45;54.68;102133.50;5075588;28;20057;-59
2022/08/11 09:53:24;;;;;;;9.68;4.05;;;;;;;32.89;52.17;102133.78;5074311;28;20036;-58
2022/08/11 09:55:50;;;;;;;8.30;4.10;;;;;;;33.51;49.52;102136.81;5072905;28;20033;-58
2022/08/11 09:58:17;;;;;;;8.65;4.10;;;;;;;33.99;47.85;102138.72;5075405;28;20029;-59
2022/08/11 10:00:49;;;;;;;7.03;3.92;;;;;;;34.32;45.64;102129.91;5082561;28;20041;-58
2022/08/11 10:03:22;;;;;;;10.18;3.70;;;;;;;34.69;44.31;102135.09;5075834;28;20089;-59
2022/08/11 10:08:43;;;;;;;14.50;6.10;;;;;;;35.41;41.46;102144.81;5077219;28;20106;-58
2022/08/11 10:11:11;;;;;;;11.13;5.78;;;;;;;35.65;40.40;102137.84;5070147;28;20029;-58
2022/08/11 10:16:28;;;;;;;19.70;10.23;;;;;;;35.89;39.40;102132.41;5070517;28;20032;-57
2022/08/11 10:18:58;;;;;;;31.48;19.42;;;;;;;36.14;39.00;102128.97;5077702;28;20032;-56
2022/08/11 10:21:39;;;;;;;37.03;24.77;;;;;;;36.26;38.23;102128.22;5073073;28;20029;-58
2022/08/11 10:26:53;;;;;;;24.35;17.17;;;;;;;36.50;37.71;102126.69;5066622;28;20423;-57
2022/08/11 10:35:11;;;;;;;15.15;8.73;;;;;;;37.04;35.39;102133.31;5068224;28;20039;-58
2022/08/11 10:37:38;;;;;;;14.23;7.32;;;;;;;37.20;35.02;102128.69;5067019;28;20025;-57
2022/08/11 10:40:06;;;;;;;10.27;4.55;;;;;;;37.40;34.91;102123.31;5060091;28;20044;-58
2022/08/11 10:48:03;;;;;;;5.82;2.70;;;;;;;38.15;32.82;102118.38;5087213;28;20036;-58
2022/08/11 10:58:48;;;;;;;7.65;2.65;;;;;;;38.89;31.12;102105.16;5086075;28;20043;-60
2022/08/11 11:01:21;;;;;;;8.50;2.80;;;;;;;38.81;31.01;102104.97;5084502;28;20089;-60
2022/08/11 11:03:51;;;;;;;4.15;2.45;;;;;;;39.15;31.82;102111.03;5086266;28;20037;-60
2022/08/11 11:06:27;;;;;;;7.47;2.55;;;;;;;39.38;29.63;102110.38;5089901;28;20029;-61
2022/08/11 11:09:31;;;;;;;4.45;2.03;;;;;;;39.47;29.72;102100.94;5093060;28;20032;-60
2022/08/11 11:20:37;;;;;;;6.10;2.47;;;;;;;40.47;28.64;102101.34;5089969;28;20040;-61
2022/08/11 11:23:06;;;;;;;6.70;2.78;;;;;;;40.63;28.70;102106.03;5087286;28;20045;-60
2022/08/11 11:26:13;;;;;;;6.80;2.30;;;;;;;40.88;27.60;102106.50;5097267;28;20028;-61
2022/08/11 11:29:08;;;;;;;4.00;2.42;;;;;;;41.18;28.31;102100.16;5093877;28;20048;-60
2022/08/11 11:31:55;;;;;;;4.45;2.58;;;;;;;41.36;27.37;102103.19;5073850;28;20044;-60
2022/08/11 11:35:01;;;;;;;9.40;2.70;;;;;;;41.37;26.00;102104.81;5092536;28;21294;-60
2022/08/11 11:37:34;;;;;;;7.45;2.40;;;;;;;41.47;26.37;102111.75;5086444;28;20084;-59
2022/08/11 11:40:09;;;;;;;7.15;2.45;;;;;;;41.51;26.06;102111.81;5088158;28;20131;-60
2022/08/11 11:42:35;;;;;;;9.63;1.80;;;;;;;41.55;25.27;102107.06;5085222;28;20057;-59
2022/08/11 11:45:03;;;;;;;6.43;2.00;;;;;;;41.88;24.90;102102.69;5071595;28;21114;-60
2022/08/11 11:47:30;;;;;;;3.40;1.80;;;;;;;42.09;24.17;102106.94;5067781;28;20089;-60
2022/08/11 11:49:56;;;;;;;1.80;1.58;;;;;;;42.33;23.74;102104.75;5075103;28;20036;-60
2022/08/11 11:52:22;;;;;;;4.57;2.03;;;;;;;42.49;23.94;102102.53;5068507;28;20096;-60
2022/08/11 11:54:53;;;;;;;6.93;1.98;;;;;;;42.79;23.70;102081.09;5068097;28;20040;-61
2022/08/11 12:02:55;;;;;;;2.90;1.85;;;;;;;42.53;23.45;102078.06;5064206;28;20036;-58
2022/08/11 12:05:21;;;;;;;4.35;2.15;;;;;;;43.15;23.55;102072.91;5067612;28;20043;-61
2022/08/11 12:10:32;;;;;;;8.07;2.45;;;;;;;43.02;22.57;102077.25;5064299;28;20071;-57
2022/08/11 12:15:47;;;;;;;7.15;1.83;;;;;;;43.77;23.06;102071.19;5065276;28;20038;-59
2022/08/11 12:18:15;;;;;;;8.48;2.13;;;;;;;44.19;21.85;102068.06;5066019;28;20036;-59
2022/08/11 12:20:43;;;;;;;4.32;2.03;;;;;;;44.25;22.81;102063.66;5069576;28;20028;-60
2022/08/11 12:28:41;;;;;;;3.58;1.90;;;;;;;44.28;21.66;102065.66;5066307;28;20100;-60
2022/08/11 12:31:08;;;;;;;28.35;16.38;;;;;;;44.57;21.65;102062.06;5066230;28;20029;-60
2022/08/11 12:33:36;;;;;;;35.35;24.52;;;;;;;44.62;21.17;102059.66;5067873;28;20044;-60
2022/08/11 12:36:02;;;;;;;25.92;15.30;;;;;;;44.97;20.75;102055.16;5074066;28;20052;-60
2022/08/11 12:38:30;;;;;;;17.42;12.57;;;;;;;44.90;20.51;102043.88;5074165;28;20022;-61
2022/08/11 12:46:36;;;;;;;7.25;4.20;;;;;;;45.52;20.95;102038.84;5093328;28;20265;-61
2022/08/11 12:52:08;;;;;;;7.95;2.80;;;;;;;45.71;19.90;102031.06;5097860;28;20303;-60
2022/08/11 12:54:48;;;;;;;8.02;2.40;;;;;;;45.72;21.59;102032.69;5095337;28;20048;-61
2022/08/11 13:05:54;;;;;;;5.47;1.83;;;;;;;46.82;19.14;102022.88;5092610;28;20037;-60
2022/08/11 13:08:21;;;;;;;4.25;1.70;;;;;;;47.08;19.58;102022.63;5093403;28;20055;-60
2022/08/11 13:13:35;;;;;;;6.60;1.73;;;;;;;46.68;17.70;102018.19;5092110;28;20114;-59
2022/08/11 13:16:01;;;;;;;2.88;1.73;;;;;;;46.85;18.92;102012.75;5088600;28;20036;-60
2022/08/11 13:18:28;;;;;;;2.95;1.63;;;;;;;47.41;17.92;102010.84;5093106;28;20032;-59
2022/08/11 13:20:56;;;;;;;5.43;2.05;;;;;;;47.43;17.37;102012.03;5089240;28;20036;-59
2022/08/11 13:23:23;;;;;;;2.60;1.70;;;;;;;47.42;17.60;102010.44;5091259;28;20036;-60
2022/08/11 13:25:53;;;;;;;3.15;1.45;;;;;;;47.46;17.37;102002.69;5094528;28;20130;-59
2022/08/11 13:28:20;;;;;;;5.25;1.40;;;;;;;47.36;18.51;102000.81;5091497;28;20043;-59
2022/08/11 13:33:38;;;;;;;3.20;1.85;;;;;;;47.60;18.03;101993.16;5091080;28;20036;-59
2022/08/11 13:36:05;;;;;;;4.53;1.45;;;;;;;47.77;18.32;101999.84;5095895;28;20047;-60
2022/08/11 13:38:31;;;;;;;4.03;1.52;;;;;;;47.71;18.16;101995.88;5098446;28;20024;-59
2022/08/11 13:40:58;;;;;;;10.85;5.03;;;;;;;47.89;17.88;101991.94;5102553;28;20096;-60
2022/08/11 13:43:24;;;;;;;26.15;18.48;;;;;;;47.88;17.60;101993.19;5074603;28;20053;-59
2022/08/11 13:46:17;;;;;;;56.13;42.88;;;;;;;47.94;17.36;101982.94;5103512;28;20032;-59
2022/08/11 13:48:38;;;;;;;32.28;24.52;;;;;;;48.01;17.06;101980.00;5101142;28;20040;-59
2022/08/11 13:53:49;;;;;;;13.63;10.70;;;;;;;47.85;17.70;101985.53;5094496;28;20111;-59
2022/08/11 13:56:15;;;;;;;11.88;7.78;;;;;;;47.48;17.49;101979.63;5093672;28;20037;-59
2022/08/11 13:58:41;;;;;;;8.05;5.45;;;;;;;47.46;17.56;101982.88;5095893;28;20039;-58
2022/08/11 14:01:08;;;;;;;6.50;3.90;;;;;;;47.79;17.42;101976.72;5093889;28;20024;-59
2022/08/11 14:03:34;;;;;;;7.20;3.90;;;;;;;47.50;17.28;101975.09;5091916;28;20036;-58
2022/08/11 14:06:02;;;;;;;7.40;2.95;;;;;;;47.83;17.31;101977.47;5093524;28;20037;-58
2022/08/11 14:08:33;;;;;;;5.40;3.03;;;;;;;48.21;16.66;101977.22;5095895;28;20032;-58
2022/08/11 14:13:49;;;;;;;3.92;1.85;;;;;;;48.01;17.03;101963.00;5097354;28;20034;-59
2022/08/11 14:16:23;;;;;;;5.88;2.15;;;;;;;48.23;16.60;101960.59;5098823;28;20032;-58
2022/08/11 14:18:53;;;;;;;4.63;2.60;;;;;;;48.18;17.44;101957.44;5092581;28;20029;-61
2022/08/11 14:24:10;;;;;;;68.70;47.58;;;;;;;48.00;17.71;101958.56;5087306;28;20051;-58
2022/08/11 14:26:37;;;;;;;59.20;39.60;;;;;;;48.03;17.18;101951.25;5087403;28;20033;-58
2022/08/11 14:29:08;;;;;;;40.03;28.10;;;;;;;48.03;17.40;101954.88;5089530;28;20036;-59
2022/08/11 14:31:37;;;;;;;29.75;18.25;;;;;;;48.01;17.24;101942.34;5089335;28;20036;-57
2022/08/11 14:34:09;;;;;;;20.23;12.63;;;;;;;48.16;17.41;101943.72;5085504;28;20052;-59
2022/08/11 14:36:39;;;;;;;16.85;8.88;;;;;;;48.22;17.51;101944.81;5088939;28;20025;-58
2022/08/11 14:39:11;;;;;;;9.75;6.55;;;;;;;48.38;17.18;101944.09;5086077;28;20048;-58
2022/08/11 14:47:14;;;;;;;7.13;2.85;;;;;;;48.56;17.54;101945.00;5085679;28;20032;-57
2022/08/11 14:49:41;;;;;;;5.60;2.45;;;;;;;48.13;17.18;101932.44;5085621;28;20066;-59
2022/08/11 14:52:09;;;;;;;3.95;2.38;;;;;;;48.06;16.88;101934.19;5083039;28;20036;-58
2022/08/11 14:57:22;;;;;;;4.55;2.10;;;;;;;48.09;17.36;101919.13;5088747;28;20095;-57
2022/08/11 14:59:49;;;;;;;4.38;2.15;;;;;;;48.07;17.33;101921.59;5087478;28;20084;-59
2022/08/11 15:05:04;;;;;;;3.55;1.92;;;;;;;47.67;16.82;101908.13;5086888;28;20024;-58
2022/08/11 15:07:33;;;;;;;4.45;1.70;;;;;;;47.78;17.12;101912.78;5088035;28;20043;-58
2022/08/11 15:10:01;;;;;;;3.58;1.60;;;;;;;47.75;17.57;101908.81;5085709;28;20037;-59
2022/08/11 15:12:28;;;;;;;3.53;1.70;;;;;;;47.79;17.01;101903.06;5089223;28;20025;-60
2022/08/11 15:17:39;;;;;;;4.15;2.03;;;;;;;47.89;17.57;101904.91;5087156;28;20033;-59
2022/08/11 15:25:44;;;;;;;6.05;1.88;;;;;;;47.56;17.48;101889.69;5082438;28;20033;-58
2022/08/11 15:39:23;;;;;;;4.97;1.88;;;;;;;47.71;17.38;101879.72;5091090;28;20027;-58
2022/08/11 15:47:56;;;;;;;41.75;29.80;;;;;;;47.48;18.13;101872.78;5093897;28;20166;-58
2022/08/11 15:50:28;;;;;;;31.92;19.55;;;;;;;47.22;18.13;101872.38;5093670;28;20052;-58
2022/08/11 15:53:37;;;;;;;33.35;19.05;;;;;;;47.35;17.86;101863.31;5090643;28;20037;-59
2022/08/11 15:56:05;;;;;;;25.67;15.65;;;;;;;47.40;18.30;101865.66;5095207;28;20020;-58
2022/08/11 16:04:25;;;;;;;48.95;33.35;;;;;;;46.52;18.57;101859.59;5058586;28;20051;-59
2022/08/11 16:07:00;;;;;;;27.55;18.95;;;;;;;46.43;18.33;101862.09;5093112;28;20035;-60
2022/08/11 16:09:36;;;;;;;21.83;10.77;;;;;;;46.07;18.17;101849.16;5094180;28;20097;-58
2022/08/11 16:12:07;;;;;;;14.38;8.27;;;;;;;46.01;18.31;101843.16;5094548;28;20029;-58
2022/08/11 16:17:36;;;;;;;8.05;5.15;;;;;;;45.47;18.86;101850.09;5092277;28;20025;-58
2022/08/11 16:20:04;;;;;;;5.45;3.60;;;;;;;45.30;18.56;101836.88;5089979;28;20035;-58
2022/08/11 16:22:38;;;;;;;5.43;3.03;;;;;;;45.16;18.89;101840.63;5086907;28;20059;-58
2022/08/11 16:25:10;;;;;;;8.80;3.20;;;;;;;45.07;19.07;101838.25;5094150;28;20040;-58
2022/08/11 16:27:40;;;;;;;5.05;2.90;;;;;;;44.89;18.91;101833.50;5092522;28;20039;-58
2022/08/11 16:30:07;;;;;;;6.20;2.75;;;;;;;44.92;18.87;101838.34;5088371;28;20039;-58
2022/08/11 16:32:35;;;;;;;6.63;2.80;;;;;;;44.74;19.36;101843.25;5090575;28;20064;-58
2022/08/11 16:40:49;;;;;;;3.50;1.80;;;;;;;44.40;20.15;101830.47;5094023;28;20032;-58
2022/08/11 16:48:54;;;;;;;4.18;2.08;;;;;;;44.25;20.26;101824.91;5087905;28;20100;-57
2022/08/11 16:51:20;;;;;;;8.55;2.17;;;;;;;44.33;20.53;101820.06;5086414;28;20037;-57
2022/08/11 16:53:48;;;;;;;5.30;2.10;;;;;;;44.24;19.95;101822.47;5091527;28;20056;-57